Search for airport 
image banner adimage banner adimage banner ad
image banner ad

CA19 - Camanche Skypark

Located in Ione, United States

ICAO - CA19, IATA -

Data provided by Airmate  

General information

Coordinates: N38°15'50" W120°55'24"
Elevation is 520 feet MSL.
Magnetic variation is 16° East
View others Airports in California

Operational data

Special qualification required
Current time UTC:
Current local time:
METAR: KJAQ 141115Z AUTO 29003KT 10SM CLR 15/15 A3002 RMK AO1 T01470147
View NOTAMs / SUP AIP / TFR affecting this airport [VIEW]
Communications frequencies: [VIEW]

Runways:

RWY identifierQFULength (ft)Width (ft)SurfaceLDA (ft)
09225030ASPH
27225030ASPH

Airport contact information

Address: Ione United States

Satellite view of CA19